Terminal Aerodrome Forecast
Issued by NWS Cleveland, OH

Home | Current Version | Previous Version | Graphics & Text | Print | Product List | Glossary Off
Versions: 1 2 3 4 5 6 7 8 9 10 11 12 13 14 15 16

000
FTUS41 KCLE 312300
TAFTOL
TAF
KTOL 312338Z 0100/0124 21005KT P6SM SCT035 BKN100 OVC250
     FM010600 23005KT 4SM -SN SCT008 OVC035
     FM010800 02005KT 1SM -SN BR OVC008
     FM011600 05012KT 1/2SM SN OVC005
     FM012200 08015G25KT 1/2SM SN BLSN OVC003=

USA.gov is the U.S. government's official web portal to all federal, state and local government web resources and services.